sensor_id;sensor_type;location;lat;lon;timestamp;pressure;altitude;pressure_sealevel;temperature
74060;BMP280;62414;53.436;8.828;2022-12-18T00:02:06;102498.66;;;-6.27
74060;BMP280;62414;53.436;8.828;2022-12-18T00:04:31;102506.03;;;-6.29
74060;BMP280;62414;53.436;8.828;2022-12-18T00:06:56;102512.66;;;-6.32
74060;BMP280;62414;53.436;8.828;2022-12-18T00:09:22;102508.16;;;-6.31
74060;BMP280;62414;53.436;8.828;2022-12-18T00:11:47;102513.41;;;-6.36
74060;BMP280;62414;53.436;8.828;2022-12-18T00:14:14;102500.50;;;-6.38
74060;BMP280;62414;53.436;8.828;2022-12-18T00:16:43;102512.88;;;-6.38
74060;BMP280;62414;53.436;8.828;2022-12-18T00:19:09;102509.72;;;-6.46
74060;BMP280;62414;53.436;8.828;2022-12-18T00:21:35;102506.03;;;-6.50
74060;BMP280;62414;53.436;8.828;2022-12-18T00:24:01;102514.44;;;-6.53
74060;BMP280;62414;53.436;8.828;2022-12-18T00:26:28;102514.97;;;-6.51
74060;BMP280;62414;53.436;8.828;2022-12-18T00:28:58;102513.13;;;-6.50
74060;BMP280;62414;53.436;8.828;2022-12-18T00:31:26;102511.03;;;-6.53
74060;BMP280;62414;53.436;8.828;2022-12-18T00:33:53;102511.53;;;-6.51
74060;BMP280;62414;53.436;8.828;2022-12-18T00:36:21;102515.50;;;-6.54
74060;BMP280;62414;53.436;8.828;2022-12-18T00:38:48;102511.03;;;-6.53
74060;BMP280;62414;53.436;8.828;2022-12-18T00:41:17;102500.22;;;-6.52
74060;BMP280;62414;53.436;8.828;2022-12-18T00:43:43;102504.16;;;-6.54
74060;BMP280;62414;53.436;8.828;2022-12-18T00:46:08;102503.91;;;-6.53
74060;BMP280;62414;53.436;8.828;2022-12-18T00:48:35;102500.75;;;-6.39
74060;BMP280;62414;53.436;8.828;2022-12-18T00:51:00;102490.78;;;-6.17
74060;BMP280;62414;53.436;8.828;2022-12-18T00:53:26;102500.78;;;-6.19
74060;BMP280;62414;53.436;8.828;2022-12-18T00:55:51;102506.03;;;-6.44
74060;BMP280;62414;53.436;8.828;2022-12-18T00:58:17;102515.50;;;-6.54
74060;BMP280;62414;53.436;8.828;2022-12-18T01:00:43;102512.88;;;-6.59
74060;BMP280;62414;53.436;8.828;2022-12-18T01:03:13;102523.66;;;-6.60
74060;BMP280;62414;53.436;8.828;2022-12-18T01:05:41;102527.59;;;-6.63
74060;BMP280;62414;53.436;8.828;2022-12-18T01:08:07;102522.31;;;-6.63
74060;BMP280;62414;53.436;8.828;2022-12-18T01:10:32;102511.50;;;-6.66
74060;BMP280;62414;53.436;8.828;2022-12-18T01:12:58;102504.66;;;-6.67
74060;BMP280;62414;53.436;8.828;2022-12-18T01:15:23;102511.50;;;-6.66
74060;BMP280;62414;53.436;8.828;2022-12-18T01:17:51;102524.44;;;-6.65
74060;BMP280;62414;53.436;8.828;2022-12-18T01:20:18;102530.22;;;-6.63
74060;BMP280;62414;53.436;8.828;2022-12-18T01:22:44;102545.22;;;-6.63
74060;BMP280;62414;53.436;8.828;2022-12-18T01:25:10;102535.47;;;-6.63
74060;BMP280;62414;53.436;8.828;2022-12-18T01:27:35;102534.41;;;-6.62
74060;BMP280;62414;53.436;8.828;2022-12-18T01:30:04;102533.38;;;-6.66
74060;BMP280;62414;53.436;8.828;2022-12-18T01:32:30;102536.53;;;-6.64
74060;BMP280;62414;53.436;8.828;2022-12-18T01:34:55;102538.66;;;-6.61
74060;BMP280;62414;53.436;8.828;2022-12-18T01:37:21;102552.09;;;-6.57
74060;BMP280;62414;53.436;8.828;2022-12-18T01:39:47;102542.63;;;-6.58
74060;BMP280;62414;53.436;8.828;2022-12-18T01:42:14;102548.69;;;-6.58
74060;BMP280;62414;53.436;8.828;2022-12-18T01:44:59;102553.44;;;-6.60
74060;BMP280;62414;53.436;8.828;2022-12-18T01:47:27;102556.84;;;-6.59
74060;BMP280;62414;53.436;8.828;2022-12-18T01:49:54;102559.22;;;-6.58
74060;BMP280;62414;53.436;8.828;2022-12-18T01:52:21;102561.06;;;-6.58
74060;BMP280;62414;53.436;8.828;2022-12-18T01:54:49;102562.13;;;-6.59
74060;BMP280;62414;53.436;8.828;2022-12-18T01:57:15;102557.09;;;-6.61
74060;BMP280;62414;53.436;8.828;2022-12-18T01:59:43;102555.00;;;-6.59
74060;BMP280;62414;53.436;8.828;2022-12-18T02:02:09;102546.56;;;-6.61
74060;BMP280;62414;53.436;8.828;2022-12-18T02:04:35;102552.88;;;-6.57
74060;BMP280;62414;53.436;8.828;2022-12-18T02:07:05;102551.09;;;-6.46
74060;BMP280;62414;53.436;8.828;2022-12-18T02:09:34;102537.69;;;-6.14
74060;BMP280;62414;53.436;8.828;2022-12-18T02:12:07;102523.69;;;-6.25
74060;BMP280;62414;53.436;8.828;2022-12-18T02:14:44;102526.06;;;-6.43
74060;BMP280;62414;53.436;8.828;2022-12-18T02:17:14;102541.56;;;-6.52
74060;BMP280;62414;53.436;8.828;2022-12-18T02:19:57;102550.00;;;-6.55
74060;BMP280;62414;53.436;8.828;2022-12-18T02:22:30;102549.44;;;-6.62
74060;BMP280;62414;53.436;8.828;2022-12-18T02:25:09;102555.78;;;-6.63
74060;BMP280;62414;53.436;8.828;2022-12-18T02:27:40;102551.28;;;-6.68
74060;BMP280;62414;53.436;8.828;2022-12-18T02:30:08;102553.13;;;-6.68
74060;BMP280;62414;53.436;8.828;2022-12-18T02:32:37;102550.75;;;-6.70
74060;BMP280;62414;53.436;8.828;2022-12-18T02:35:06;102542.31;;;-6.72
74060;BMP280;62414;53.436;8.828;2022-12-18T02:37:35;102548.91;;;-6.70
74060;BMP280;62414;53.436;8.828;2022-12-18T02:40:05;102547.88;;;-6.68
74060;BMP280;62414;53.436;8.828;2022-12-18T02:42:34;102534.94;;;-6.70
74060;BMP280;62414;53.436;8.828;2022-12-18T02:45:04;102534.16;;;-6.71
74060;BMP280;62414;53.436;8.828;2022-12-18T02:47:34;102536.28;;;-6.73
74060;BMP280;62414;53.436;8.828;2022-12-18T02:50:08;102538.06;;;-6.78
74060;BMP280;62414;53.436;8.828;2022-12-18T02:52:43;102534.38;;;-6.77
74060;BMP280;62414;53.436;8.828;2022-12-18T02:55:22;102550.72;;;-6.75
74060;BMP280;62414;53.436;8.828;2022-12-18T02:57:55;102553.91;;;-6.73
74060;BMP280;62414;53.436;8.828;2022-12-18T03:00:30;102552.59;;;-6.71
74060;BMP280;62414;53.436;8.828;2022-12-18T03:02:59;102553.13;;;-6.74
74060;BMP280;62414;53.436;8.828;2022-12-18T03:05:31;102561.00;;;-6.79
74060;BMP280;62414;53.436;8.828;2022-12-18T03:08:03;102562.03;;;-6.80
74060;BMP280;62414;53.436;8.828;2022-12-18T03:10:35;102559.66;;;-6.86
74060;BMP280;62414;53.436;8.828;2022-12-18T03:13:06;102566.72;;;-6.92
74060;BMP280;62414;53.436;8.828;2022-12-18T03:15:37;102563.31;;;-6.93
74060;BMP280;62414;53.436;8.828;2022-12-18T03:18:11;102566.47;;;-6.90
74060;BMP280;62414;53.436;8.828;2022-12-18T03:20:40;102563.31;;;-6.93
74060;BMP280;62414;53.436;8.828;2022-12-18T03:23:11;102571.19;;;-6.93
74060;BMP280;62414;53.436;8.828;2022-12-18T03:25:40;102575.72;;;-6.83
74060;BMP280;62414;53.436;8.828;2022-12-18T03:28:10;102576.03;;;-6.69
74060;BMP280;62414;53.436;8.828;2022-12-18T03:30:40;102560.03;;;-6.42
74060;BMP280;62414;53.436;8.828;2022-12-18T03:33:08;102560.75;;;-6.62
74060;BMP280;62414;53.436;8.828;2022-12-18T03:35:40;102560.44;;;-6.86
74060;BMP280;62414;53.436;8.828;2022-12-18T03:38:07;102568.28;;;-6.96
74060;BMP280;62414;53.436;8.828;2022-12-18T03:40:41;102571.66;;;-7.01
74060;BMP280;62414;53.436;8.828;2022-12-18T03:43:13;102569.34;;;-6.97
74060;BMP280;62414;53.436;8.828;2022-12-18T03:45:48;102558.03;;;-6.98
74060;BMP280;62414;53.436;8.828;2022-12-18T03:48:18;102552.75;;;-6.98
74060;BMP280;62414;53.436;8.828;2022-12-18T03:50:51;102541.97;;;-6.96
74060;BMP280;62414;53.436;8.828;2022-12-18T03:53:25;102542.25;;;-6.93
74060;BMP280;62414;53.436;8.828;2022-12-18T03:55:55;102542.75;;;-6.96
74060;BMP280;62414;53.436;8.828;2022-12-18T03:58:26;102546.19;;;-6.95
74060;BMP280;62414;53.436;8.828;2022-12-18T04:01:05;102544.59;;;-6.96
74060;BMP280;62414;53.436;8.828;2022-12-18T04:03:34;102551.72;;;-6.97
74060;BMP280;62414;53.436;8.828;2022-12-18T04:06:02;102538.53;;;-6.97
74060;BMP280;62414;53.436;8.828;2022-12-18T04:08:28;102540.88;;;-7.00
74060;BMP280;62414;53.436;8.828;2022-12-18T04:11:05;102539.28;;;-7.06
74060;BMP280;62414;53.436;8.828;2022-12-18T04:13:34;102538.22;;;-7.10
74060;BMP280;62414;53.436;8.828;2022-12-18T04:16:06;102535.84;;;-7.12
74060;BMP280;62414;53.436;8.828;2022-12-18T04:18:32;102534.50;;;-7.14
74060;BMP280;62414;53.436;8.828;2022-12-18T04:20:59;102531.06;;;-7.15
74060;BMP280;62414;53.436;8.828;2022-12-18T04:23:25;102530.00;;;-7.19
74060;BMP280;62414;53.436;8.828;2022-12-18T04:25:54;102532.63;;;-7.19
74060;BMP280;62414;53.436;8.828;2022-12-18T04:28:34;102528.16;;;-7.24
74060;BMP280;62414;53.436;8.828;2022-12-18T04:30:59;102536.81;;;-7.23
74060;BMP280;62414;53.436;8.828;2022-12-18T04:33:26;102538.13;;;-7.26
74060;BMP280;62414;53.436;8.828;2022-12-18T04:35:52;102543.09;;;-7.29
74060;BMP280;62414;53.436;8.828;2022-12-18T04:38:17;102531.81;;;-7.25
74060;BMP280;62414;53.436;8.828;2022-12-18T04:40:44;102541.03;;;-7.22
74060;BMP280;62414;53.436;8.828;2022-12-18T04:43:18;102534.81;;;-7.11
74060;BMP280;62414;53.436;8.828;2022-12-18T04:45:43;102542.44;;;-7.04
74060;BMP280;62414;53.436;8.828;2022-12-18T04:48:09;102545.91;;;-6.99
74060;BMP280;62414;53.436;8.828;2022-12-18T04:50:36;102549.41;;;-6.83
74060;BMP280;62414;53.436;8.828;2022-12-18T04:53:01;102552.38;;;-6.59
74060;BMP280;62414;53.436;8.828;2022-12-18T04:55:27;102550.56;;;-6.48
74060;BMP280;62414;53.436;8.828;2022-12-18T04:57:53;102556.75;;;-6.75
74060;BMP280;62414;53.436;8.828;2022-12-18T05:00:18;102563.84;;;-6.85
74060;BMP280;62414;53.436;8.828;2022-12-18T05:02:44;102563.53;;;-6.94
74060;BMP280;62414;53.436;8.828;2022-12-18T05:05:09;102568.03;;;-6.95
74060;BMP280;62414;53.436;8.828;2022-12-18T05:07:36;102575.41;;;-6.91
74060;BMP280;62414;53.436;8.828;2022-12-18T05:10:03;102586.47;;;-6.89
74060;BMP280;62414;53.436;8.828;2022-12-18T05:12:28;102599.38;;;-6.93
74060;BMP280;62414;53.436;8.828;2022-12-18T05:14:54;102599.09;;;-6.97
74060;BMP280;62414;53.436;8.828;2022-12-18T05:17:19;102604.88;;;-6.95
74060;BMP280;62414;53.436;8.828;2022-12-18T05:19:45;102599.88;;;-6.96
74060;BMP280;62414;53.436;8.828;2022-12-18T05:22:11;102600.16;;;-6.98
74060;BMP280;62414;53.436;8.828;2022-12-18T05:24:38;102594.56;;;-7.01
74060;BMP280;62414;53.436;8.828;2022-12-18T05:27:03;102597.72;;;-7.04
74060;BMP280;62414;53.436;8.828;2022-12-18T05:29:29;102600.88;;;-7.07
74060;BMP280;62414;53.436;8.828;2022-12-18T05:31:54;102601.38;;;-7.10
74060;BMP280;62414;53.436;8.828;2022-12-18T05:34:19;102600.09;;;-7.08
74060;BMP280;62414;53.436;8.828;2022-12-18T05:36:45;102600.09;;;-7.03
74060;BMP280;62414;53.436;8.828;2022-12-18T05:39:10;102599.56;;;-7.05
74060;BMP280;62414;53.436;8.828;2022-12-18T05:41:37;102601.91;;;-7.03
74060;BMP280;62414;53.436;8.828;2022-12-18T05:44:03;102592.22;;;-7.03
74060;BMP280;62414;53.436;8.828;2022-12-18T05:46:29;102582.25;;;-6.96
74060;BMP280;62414;53.436;8.828;2022-12-18T05:48:54;102585.66;;;-6.95
74060;BMP280;62414;53.436;8.828;2022-12-18T05:51:21;102584.09;;;-6.91
74060;BMP280;62414;53.436;8.828;2022-12-18T05:53:47;102590.69;;;-6.94
74060;BMP280;62414;53.436;8.828;2022-12-18T05:56:21;102594.88;;;-6.98
74060;BMP280;62414;53.436;8.828;2022-12-18T05:58:52;102596.97;;;-7.00
74060;BMP280;62414;53.436;8.828;2022-12-18T06:01:19;102597.22;;;-7.01
74060;BMP280;62414;53.436;8.828;2022-12-18T06:03:45;102591.69;;;-7.00
74060;BMP280;62414;53.436;8.828;2022-12-18T06:06:14;102592.22;;;-7.03
74060;BMP280;62414;53.436;8.828;2022-12-18T06:08:40;102593.22;;;-7.09
74060;BMP280;62414;53.436;8.828;2022-12-18T06:11:05;102602.44;;;-7.06
74060;BMP280;62414;53.436;8.828;2022-12-18T06:13:31;102604.03;;;-7.05
74060;BMP280;62414;53.436;8.828;2022-12-18T06:15:58;102607.16;;;-7.08
74060;BMP280;62414;53.436;8.828;2022-12-18T06:18:23;102612.97;;;-7.06
74060;BMP280;62414;53.436;8.828;2022-12-18T06:20:54;102601.91;;;-7.03
74060;BMP280;62414;53.436;8.828;2022-12-18T06:23:20;102602.78;;;-6.93
74060;BMP280;62414;53.436;8.828;2022-12-18T06:25:45;102601.38;;;-6.58
74060;BMP280;62414;53.436;8.828;2022-12-18T06:28:10;102584.03;;;-6.43
74060;BMP280;62414;53.436;8.828;2022-12-18T06:30:36;102603.94;;;-6.73
74060;BMP280;62414;53.436;8.828;2022-12-18T06:33:03;102601.22;;;-6.94
74060;BMP280;62414;53.436;8.828;2022-12-18T06:35:28;102609.56;;;-7.02
74060;BMP280;62414;53.436;8.828;2022-12-18T06:37:54;102603.22;;;-7.11
74060;BMP280;62414;53.436;8.828;2022-12-18T06:40:19;102595.03;;;-7.14
74060;BMP280;62414;53.436;8.828;2022-12-18T06:42:45;102606.31;;;-7.19
74060;BMP280;62414;53.436;8.828;2022-12-18T06:45:10;102607.63;;;-7.22
74060;BMP280;62414;53.436;8.828;2022-12-18T06:47:36;102613.38;;;-7.25
74060;BMP280;62414;53.436;8.828;2022-12-18T06:50:03;102607.81;;;-7.28
74060;BMP280;62414;53.436;8.828;2022-12-18T06:52:28;102616.78;;;-7.29
74060;BMP280;62414;53.436;8.828;2022-12-18T06:54:56;102622.31;;;-7.26
74060;BMP280;62414;53.436;8.828;2022-12-18T06:57:21;102617.56;;;-7.29
74060;BMP280;62414;53.436;8.828;2022-12-18T06:59:47;102620.69;;;-7.32
74060;BMP280;62414;53.436;8.828;2022-12-18T07:02:12;102620.16;;;-7.34
74060;BMP280;62414;53.436;8.828;2022-12-18T07:04:38;102619.66;;;-7.36
74060;BMP280;62414;53.436;8.828;2022-12-18T07:07:05;102625.44;;;-7.34
74060;BMP280;62414;53.436;8.828;2022-12-18T07:09:30;102624.66;;;-7.34
74060;BMP280;62414;53.436;8.828;2022-12-18T07:11:55;102616.16;;;-7.36
74060;BMP280;62414;53.436;8.828;2022-12-18T07:14:21;102619.84;;;-7.37
74060;BMP280;62414;53.436;8.828;2022-12-18T07:16:46;102621.22;;;-7.35
74060;BMP280;62414;53.436;8.828;2022-12-18T07:19:12;102624.66;;;-7.34
74060;BMP280;62414;53.436;8.828;2022-12-18T07:21:37;102630.16;;;-7.36
74060;BMP280;62414;53.436;8.828;2022-12-18T07:24:05;102631.94;;;-7.36
74060;BMP280;62414;53.436;8.828;2022-12-18T07:26:31;102633.59;;;-7.35
74060;BMP280;62414;53.436;8.828;2022-12-18T07:28:57;102638.34;;;-7.27
74060;BMP280;62414;53.436;8.828;2022-12-18T07:31:23;102636.28;;;-7.25
74060;BMP280;62414;53.436;8.828;2022-12-18T07:33:49;102637.31;;;-7.26
74060;BMP280;62414;53.436;8.828;2022-12-18T07:36:15;102629.66;;;-7.28
74060;BMP280;62414;53.436;8.828;2022-12-18T07:38:41;102636.28;;;-7.25
74060;BMP280;62414;53.436;8.828;2022-12-18T07:41:09;102639.66;;;-7.30
74060;BMP280;62414;53.436;8.828;2022-12-18T07:43:36;102643.59;;;-7.27
74060;BMP280;62414;53.436;8.828;2022-12-18T07:46:01;102634.13;;;-7.28
74060;BMP280;62414;53.436;8.828;2022-12-18T07:48:27;102637.31;;;-7.26
74060;BMP280;62414;53.436;8.828;2022-12-18T07:50:52;102628.09;;;-7.29
74060;BMP280;62414;53.436;8.828;2022-12-18T07:53:18;102627.63;;;-7.21
74060;BMP280;62414;53.436;8.828;2022-12-18T07:55:43;102619.22;;;-7.18
74060;BMP280;62414;53.436;8.828;2022-12-18T07:58:10;102624.75;;;-7.14
74060;BMP280;62414;53.436;8.828;2022-12-18T08:00:36;102633.00;;;-7.00
74060;BMP280;62414;53.436;8.828;2022-12-18T08:03:01;102617.13;;;-6.63
74060;BMP280;62414;53.436;8.828;2022-12-18T08:05:27;102615.84;;;-6.60
74060;BMP280;62414;53.436;8.828;2022-12-18T08:07:53;102623.91;;;-6.82
74060;BMP280;62414;53.436;8.828;2022-12-18T08:10:19;102623.31;;;-6.89
74060;BMP280;62414;53.436;8.828;2022-12-18T08:12:45;102621.75;;;-6.90
74060;BMP280;62414;53.436;8.828;2022-12-18T08:15:15;102624.38;;;-6.90
74060;BMP280;62414;53.436;8.828;2022-12-18T08:17:40;102627.34;;;-6.82
74060;BMP280;62414;53.436;8.828;2022-12-18T08:20:06;102634.44;;;-6.82
74060;BMP280;62414;53.436;8.828;2022-12-18T08:22:33;102627.34;;;-6.82
74060;BMP280;62414;53.436;8.828;2022-12-18T08:24:59;102635.25;;;-6.77
74060;BMP280;62414;53.436;8.828;2022-12-18T08:27:24;102634.22;;;-6.71
74060;BMP280;62414;53.436;8.828;2022-12-18T08:29:50;102633.72;;;-6.67
74060;BMP280;62414;53.436;8.828;2022-12-18T08:32:16;102627.72;;;-6.58
74060;BMP280;62414;53.436;8.828;2022-12-18T08:34:42;102622.72;;;-6.49
74060;BMP280;62414;53.436;8.828;2022-12-18T08:37:08;102630.38;;;-6.37
74060;BMP280;62414;53.436;8.828;2022-12-18T08:39:33;102640.44;;;-6.29
74060;BMP280;62414;53.436;8.828;2022-12-18T08:41:59;102637.53;;;-6.23
74060;BMP280;62414;53.436;8.828;2022-12-18T08:44:24;102639.69;;;-6.14
74060;BMP280;62414;53.436;8.828;2022-12-18T08:46:50;102623.88;;;-6.14
74060;BMP280;62414;53.436;8.828;2022-12-18T08:49:16;102627.28;;;-6.09
74060;BMP280;62414;53.436;8.828;2022-12-18T08:51:42;102627.59;;;-6.05
74060;BMP280;62414;53.436;8.828;2022-12-18T08:54:10;102626.00;;;-5.96
74060;BMP280;62414;53.436;8.828;2022-12-18T08:56:36;102635.78;;;-5.91
74060;BMP280;62414;53.436;8.828;2022-12-18T08:59:02;102614.19;;;-5.88
74060;BMP280;62414;53.436;8.828;2022-12-18T09:01:28;102622.59;;;-5.81
74060;BMP280;62414;53.436;8.828;2022-12-18T09:03:53;102625.78;;;-5.79
74060;BMP280;62414;53.436;8.828;2022-12-18T09:06:21;102632.63;;;-5.78
74060;BMP280;62414;53.436;8.828;2022-12-18T09:08:47;102620.75;;;-5.70
74060;BMP280;62414;53.436;8.828;2022-12-18T09:11:14;102628.16;;;-5.67
74060;BMP280;62414;53.436;8.828;2022-12-18T09:13:40;102635.25;;;-5.53
74060;BMP280;62414;53.436;8.828;2022-12-18T09:16:06;102633.66;;;-5.49
74060;BMP280;62414;53.436;8.828;2022-12-18T09:18:31;102632.09;;;-5.39
74060;BMP280;62414;53.436;8.828;2022-12-18T09:20:56;102624.44;;;-5.36
74060;BMP280;62414;53.436;8.828;2022-12-18T09:23:23;102629.97;;;-5.22
74060;BMP280;62414;53.436;8.828;2022-12-18T09:25:49;102624.59;;;-4.91
74060;BMP280;62414;53.436;8.828;2022-12-18T09:28:17;102611.75;;;-4.54
74060;BMP280;62414;53.436;8.828;2022-12-18T09:30:44;102637.25;;;-4.83
74060;BMP280;62414;53.436;8.828;2022-12-18T09:33:10;102653.94;;;-4.93
74060;BMP280;62414;53.436;8.828;2022-12-18T09:35:40;102646.78;;;-4.97
74060;BMP280;62414;53.436;8.828;2022-12-18T09:38:07;102651.53;;;-4.89
74060;BMP280;62414;53.436;8.828;2022-12-18T09:40:36;102656.56;;;-4.88
74060;BMP280;62414;53.436;8.828;2022-12-18T09:43:06;102665.25;;;-4.87
74060;BMP280;62414;53.436;8.828;2022-12-18T09:45:39;102667.38;;;-4.84
74060;BMP280;62414;53.436;8.828;2022-12-18T09:48:09;102672.88;;;-4.81
74060;BMP280;62414;53.436;8.828;2022-12-18T09:50:40;102673.13;;;-4.77
74060;BMP280;62414;53.436;8.828;2022-12-18T09:53:06;102675.53;;;-4.76
74060;BMP280;62414;53.436;8.828;2022-12-18T09:55:38;102671.03;;;-4.70
74060;BMP280;62414;53.436;8.828;2022-12-18T09:58:07;102673.34;;;-4.63
74060;BMP280;62414;53.436;8.828;2022-12-18T10:00:37;102674.16;;;-4.58
74060;BMP280;62414;53.436;8.828;2022-12-18T10:03:08;102673.06;;;-4.52
74060;BMP280;62414;53.436;8.828;2022-12-18T10:05:37;102678.28;;;-4.36
74060;BMP280;62414;53.436;8.828;2022-12-18T10:08:11;102669.28;;;-4.35
74060;BMP280;62414;53.436;8.828;2022-12-18T10:10:45;102666.09;;;-4.32
74060;BMP280;62414;53.436;8.828;2022-12-18T10:13:23;102653.88;;;-4.28
74060;BMP280;62414;53.436;8.828;2022-12-18T10:15:58;102648.34;;;-4.27
74060;BMP280;62414;53.436;8.828;2022-12-18T10:18:37;102643.81;;;-4.21
74060;BMP280;62414;53.436;8.828;2022-12-18T10:21:11;102643.00;;;-4.16
74060;BMP280;62414;53.436;8.828;2022-12-18T10:23:43;102649.31;;;-4.12
74060;BMP280;62414;53.436;8.828;2022-12-18T10:26:13;102652.72;;;-4.07
74060;BMP280;62414;53.436;8.828;2022-12-18T10:28:40;102649.53;;;-4.09
74060;BMP280;62414;53.436;8.828;2022-12-18T10:31:06;102642.63;;;-4.05
74060;BMP280;62414;53.436;8.828;2022-12-18T10:33:32;102644.00;;;-4.07
74060;BMP280;62414;53.436;8.828;2022-12-18T10:35:58;102636.00;;;-4.02
74060;BMP280;62414;53.436;8.828;2022-12-18T10:38:26;102646.84;;;-3.98
74060;BMP280;62414;53.436;8.828;2022-12-18T10:40:54;102640.69;;;-3.89
74060;BMP280;62414;53.436;8.828;2022-12-18T10:43:23;102641.38;;;-3.78
74060;BMP280;62414;53.436;8.828;2022-12-18T10:46:00;102636.06;;;-3.73
74060;BMP280;62414;53.436;8.828;2022-12-18T10:48:26;102629.97;;;-3.44
74060;BMP280;62414;53.436;8.828;2022-12-18T10:50:52;102599.88;;;-2.63
74060;BMP280;62414;53.436;8.828;2022-12-18T10:53:20;102619.84;;;-2.89
74060;BMP280;62414;53.436;8.828;2022-12-18T10:55:46;102648.09;;;-3.04
74060;BMP280;62414;53.436;8.828;2022-12-18T10:58:22;102636.81;;;-3.14
74060;BMP280;62414;53.436;8.828;2022-12-18T11:01:03;102617.06;;;-3.22
74060;BMP280;62414;53.436;8.828;2022-12-18T11:03:31;102625.59;;;-3.30
74060;BMP280;62414;53.436;8.828;2022-12-18T11:06:06;102627.13;;;-3.24
74060;BMP280;62414;53.436;8.828;2022-12-18T11:08:32;102620.19;;;-3.20
74060;BMP280;62414;53.436;8.828;2022-12-18T11:10:57;102626.28;;;-3.19
74060;BMP280;62414;53.436;8.828;2022-12-18T11:13:26;102616.69;;;-3.15
74060;BMP280;62414;53.436;8.828;2022-12-18T11:15:52;102614.13;;;-3.01
74060;BMP280;62414;53.436;8.828;2022-12-18T11:18:19;102605.09;;;-3.00
74060;BMP280;62414;53.436;8.828;2022-12-18T11:20:51;102603.13;;;-2.90
74060;BMP280;62414;53.436;8.828;2022-12-18T11:23:19;102603.28;;;-2.81
74060;BMP280;62414;53.436;8.828;2022-12-18T11:25:51;102595.56;;;-2.78
74060;BMP280;62414;53.436;8.828;2022-12-18T11:31:24;102593.13;;;-2.74
74060;BMP280;62414;53.436;8.828;2022-12-18T11:33:56;102584.31;;;-2.69
74060;BMP280;62414;53.436;8.828;2022-12-18T11:36:23;102583.22;;;-2.68
74060;BMP280;62414;53.436;8.828;2022-12-18T11:38:52;102573.28;;;-2.58
74060;BMP280;62414;53.436;8.828;2022-12-18T11:41:21;102578.44;;;-2.47
74060;BMP280;62414;53.436;8.828;2022-12-18T11:43:53;102578.47;;;-2.34
74060;BMP280;62414;53.436;8.828;2022-12-18T11:46:26;102564.09;;;-2.27
74060;BMP280;62414;53.436;8.828;2022-12-18T11:48:58;102565.97;;;-2.14
74060;BMP280;62414;53.436;8.828;2022-12-18T11:51:31;102560.56;;;-2.23
74060;BMP280;62414;53.436;8.828;2022-12-18T11:53:59;102547.88;;;-2.26
74060;BMP280;62414;53.436;8.828;2022-12-18T11:56:32;102553.50;;;-2.27
74060;BMP280;62414;53.436;8.828;2022-12-18T11:59:08;102554.09;;;-2.17
74060;BMP280;62414;53.436;8.828;2022-12-18T12:01:46;102543.19;;;-2.01
74060;BMP280;62414;53.436;8.828;2022-12-18T12:04:46;102544.56;;;-1.90
74060;BMP280;62414;53.436;8.828;2022-12-18T12:07:32;102548.03;;;-1.90
74060;BMP280;62414;53.436;8.828;2022-12-18T12:10:09;102538.78;;;-1.92
74060;BMP280;62414;53.436;8.828;2022-12-18T12:12:48;102530.91;;;-2.11
74060;BMP280;62414;53.436;8.828;2022-12-18T12:15:25;102520.00;;;-2.10
74060;BMP280;62414;53.436;8.828;2022-12-18T12:17:59;102518.84;;;-2.04
74060;BMP280;62414;53.436;8.828;2022-12-18T12:20:38;102521.19;;;-2.02
74060;BMP280;62414;53.436;8.828;2022-12-18T12:23:15;102504.06;;;-2.10
74060;BMP280;62414;53.436;8.828;2022-12-18T12:25:48;102501.03;;;-2.17
74060;BMP280;62414;53.436;8.828;2022-12-18T12:28:20;102505.72;;;-2.14
74060;BMP280;62414;53.436;8.828;2022-12-18T12:31:02;102518.13;;;-2.09
74060;BMP280;62414;53.436;8.828;2022-12-18T12:33:37;102510.47;;;-2.11
74060;BMP280;62414;53.436;8.828;2022-12-18T12:36:10;102515.47;;;-2.09
74060;BMP280;62414;53.436;8.828;2022-12-18T12:38:41;102513.91;;;-2.10
74060;BMP280;62414;53.436;8.828;2022-12-18T12:41:09;102504.94;;;-2.14
74060;BMP280;62414;53.436;8.828;2022-12-18T12:43:41;102489.31;;;-2.16
74060;BMP280;62414;53.436;8.828;2022-12-18T12:46:10;102494.44;;;-2.06
74060;BMP280;62414;53.436;8.828;2022-12-18T12:48:42;102493.25;;;-1.99
74060;BMP280;62414;53.436;8.828;2022-12-18T12:51:12;102481.59;;;-1.98
74060;BMP280;62414;53.436;8.828;2022-12-18T12:53:39;102481.59;;;-1.98
74060;BMP280;62414;53.436;8.828;2022-12-18T12:56:06;102477.06;;;-1.98
74060;BMP280;62414;53.436;8.828;2022-12-18T12:58:38;102472.13;;;-2.05
74060;BMP280;62414;53.436;8.828;2022-12-18T13:01:17;102484.59;;;-2.05
74060;BMP280;62414;53.436;8.828;2022-12-18T13:03:51;102473.31;;;-2.11
74060;BMP280;62414;53.436;8.828;2022-12-18T13:06:25;102476.94;;;-2.07
74060;BMP280;62414;53.436;8.828;2022-12-18T13:08:56;102476.16;;;-2.07
74060;BMP280;62414;53.436;8.828;2022-12-18T13:11:39;102484.72;;;-2.10
74060;BMP280;62414;53.436;8.828;2022-12-18T13:14:20;102493.34;;;-2.05
74060;BMP280;62414;53.436;8.828;2022-12-18T13:16:47;102477.53;;;-2.10
74060;BMP280;62414;53.436;8.828;2022-12-18T13:19:21;102470.09;;;-2.08
74060;BMP280;62414;53.436;8.828;2022-12-18T13:21:52;102469.97;;;-2.03
74060;BMP280;62414;53.436;8.828;2022-12-18T13:24:27;102455.41;;;-2.05
74060;BMP280;62414;53.436;8.828;2022-12-18T13:26:52;102449.44;;;-2.11
74060;BMP280;62414;53.436;8.828;2022-12-18T13:29:43;102445.47;;;-1.99
74060;BMP280;62414;53.436;8.828;2022-12-18T13:32:27;102435.06;;;-1.96
74060;BMP280;62414;53.436;8.828;2022-12-18T13:37:55;102444.44;;;-1.98
74060;BMP280;62414;53.436;8.828;2022-12-18T13:43:28;102445.91;;;-2.06
74060;BMP280;62414;53.436;8.828;2022-12-18T13:46:04;102447.88;;;-1.98
74060;BMP280;62414;53.436;8.828;2022-12-18T13:48:34;102423.06;;;-1.66
74060;BMP280;62414;53.436;8.828;2022-12-18T13:51:03;102439.22;;;-1.90
74060;BMP280;62414;53.436;8.828;2022-12-18T13:53:35;102436.69;;;-2.09
74060;BMP280;62414;53.436;8.828;2022-12-18T13:56:02;102433.03;;;-2.13
74060;BMP280;62414;53.436;8.828;2022-12-18T13:58:28;102437.16;;;-2.20
74060;BMP280;62414;53.436;8.828;2022-12-18T14:00:53;102436.84;;;-2.19
74060;BMP280;62414;53.436;8.828;2022-12-18T14:03:21;102426.84;;;-2.22
74060;BMP280;62414;53.436;8.828;2022-12-18T14:06:03;102419.88;;;-2.18
74060;BMP280;62414;53.436;8.828;2022-12-18T14:08:35;102412.00;;;-2.23
74060;BMP280;62414;53.436;8.828;2022-12-18T14:11:03;102407.16;;;-2.35
74060;BMP280;62414;53.436;8.828;2022-12-18T14:13:32;102414.91;;;-2.38
74060;BMP280;62414;53.436;8.828;2022-12-18T14:16:00;102413.84;;;-2.37